sensor_id;sensor_type;location;lat;lon;timestamp;P1;durP1;ratioP1;P2;durP2;ratioP2
47778;SDS011;33538;48.432;11.350;2023-12-07T00:01:04;14.32;;;6.30;;
47778;SDS011;33538;48.432;11.350;2023-12-07T00:03:31;13.40;;;6.05;;
47778;SDS011;33538;48.432;11.350;2023-12-07T00:06:00;12.38;;;6.63;;
47778;SDS011;33538;48.432;11.350;2023-12-07T00:08:26;17.10;;;6.45;;
47778;SDS011;33538;48.432;11.350;2023-12-07T00:10:53;11.32;;;5.65;;
47778;SDS011;33538;48.432;11.350;2023-12-07T00:13:20;14.55;;;6.15;;
47778;SDS011;33538;48.432;11.350;2023-12-07T00:15:47;14.25;;;6.38;;
47778;SDS011;33538;48.432;11.350;2023-12-07T00:18:14;14.15;;;6.78;;
47778;SDS011;33538;48.432;11.350;2023-12-07T00:20:41;12.57;;;6.00;;
47778;SDS011;33538;48.432;11.350;2023-12-07T00:23:09;15.95;;;6.65;;
47778;SDS011;33538;48.432;11.350;2023-12-07T00:25:36;15.85;;;6.45;;
47778;SDS011;33538;48.432;11.350;2023-12-07T00:28:02;15.43;;;7.30;;
47778;SDS011;33538;48.432;11.350;2023-12-07T00:30:29;16.95;;;6.43;;
47778;SDS011;33538;48.432;11.350;2023-12-07T00:32:56;14.23;;;6.88;;
47778;SDS011;33538;48.432;11.350;2023-12-07T00:35:23;14.32;;;6.10;;
47778;SDS011;33538;48.432;11.350;2023-12-07T00:37:50;16.00;;;6.88;;
47778;SDS011;33538;48.432;11.350;2023-12-07T00:40:18;16.10;;;6.72;;
47778;SDS011;33538;48.432;11.350;2023-12-07T00:42:45;15.35;;;6.50;;
47778;SDS011;33538;48.432;11.350;2023-12-07T00:45:12;14.85;;;6.95;;
47778;SDS011;33538;48.432;11.350;2023-12-07T00:47:39;13.93;;;5.97;;
47778;SDS011;33538;48.432;11.350;2023-12-07T00:50:06;14.38;;;7.40;;
47778;SDS011;33538;48.432;11.350;2023-12-07T00:52:33;16.20;;;6.55;;
47778;SDS011;33538;48.432;11.350;2023-12-07T00:55:00;11.93;;;5.80;;
47778;SDS011;33538;48.432;11.350;2023-12-07T00:57:39;14.38;;;6.38;;
47778;SDS011;33538;48.432;11.350;2023-12-07T01:00:06;17.35;;;7.20;;
47778;SDS011;33538;48.432;11.350;2023-12-07T01:02:34;14.38;;;6.45;;
47778;SDS011;33538;48.432;11.350;2023-12-07T01:05:00;14.35;;;6.88;;
47778;SDS011;33538;48.432;11.350;2023-12-07T01:07:27;12.23;;;5.82;;
47778;SDS011;33538;48.432;11.350;2023-12-07T01:09:54;17.15;;;6.90;;
47778;SDS011;33538;48.432;11.350;2023-12-07T01:12:21;15.57;;;7.38;;
47778;SDS011;33538;48.432;11.350;2023-12-07T01:14:50;15.77;;;6.53;;
47778;SDS011;33538;48.432;11.350;2023-12-07T01:17:16;17.08;;;6.88;;
47778;SDS011;33538;48.432;11.350;2023-12-07T01:19:43;13.95;;;6.82;;
47778;SDS011;33538;48.432;11.350;2023-12-07T01:22:10;17.73;;;7.10;;
47778;SDS011;33538;48.432;11.350;2023-12-07T01:24:37;14.45;;;6.45;;
47778;SDS011;33538;48.432;11.350;2023-12-07T01:27:04;16.50;;;7.03;;
47778;SDS011;33538;48.432;11.350;2023-12-07T01:29:30;19.40;;;7.28;;
47778;SDS011;33538;48.432;11.350;2023-12-07T01:31:59;17.73;;;8.05;;
47778;SDS011;33538;48.432;11.350;2023-12-07T01:34:25;21.00;;;8.25;;
47778;SDS011;33538;48.432;11.350;2023-12-07T01:36:52;14.68;;;7.05;;
47778;SDS011;33538;48.432;11.350;2023-12-07T01:39:19;16.77;;;7.30;;
47778;SDS011;33538;48.432;11.350;2023-12-07T01:41:46;15.73;;;6.97;;
47778;SDS011;33538;48.432;11.350;2023-12-07T01:44:13;14.48;;;7.57;;
47778;SDS011;33538;48.432;11.350;2023-12-07T01:46:39;19.27;;;6.97;;
47778;SDS011;33538;48.432;11.350;2023-12-07T01:49:08;16.88;;;6.75;;
47778;SDS011;33538;48.432;11.350;2023-12-07T01:51:36;18.75;;;7.85;;
47778;SDS011;33538;48.432;11.350;2023-12-07T01:54:03;16.92;;;6.50;;
47778;SDS011;33538;48.432;11.350;2023-12-07T01:56:30;14.52;;;6.70;;
47778;SDS011;33538;48.432;11.350;2023-12-07T01:58:57;15.63;;;6.88;;
47778;SDS011;33538;48.432;11.350;2023-12-07T02:01:24;16.20;;;7.38;;
47778;SDS011;33538;48.432;11.350;2023-12-07T02:03:51;16.70;;;7.70;;
47778;SDS011;33538;48.432;11.350;2023-12-07T02:06:19;17.90;;;7.35;;
47778;SDS011;33538;48.432;11.350;2023-12-07T02:08:46;16.67;;;7.18;;
47778;SDS011;33538;48.432;11.350;2023-12-07T02:11:13;16.02;;;6.97;;
47778;SDS011;33538;48.432;11.350;2023-12-07T02:13:40;21.75;;;7.93;;
47778;SDS011;33538;48.432;11.350;2023-12-07T02:16:09;17.98;;;8.00;;
47778;SDS011;33538;48.432;11.350;2023-12-07T02:18:54;14.65;;;6.20;;
47778;SDS011;33538;48.432;11.350;2023-12-07T02:21:29;18.45;;;7.80;;
47778;SDS011;33538;48.432;11.350;2023-12-07T02:24:01;17.88;;;7.72;;
47778;SDS011;33538;48.432;11.350;2023-12-07T02:26:31;14.55;;;6.55;;
47778;SDS011;33538;48.432;11.350;2023-12-07T02:28:59;16.48;;;7.97;;
47778;SDS011;33538;48.432;11.350;2023-12-07T02:31:27;16.85;;;6.15;;
47778;SDS011;33538;48.432;11.350;2023-12-07T02:33:54;16.95;;;6.78;;
47778;SDS011;33538;48.432;11.350;2023-12-07T02:36:22;15.82;;;7.35;;
47778;SDS011;33538;48.432;11.350;2023-12-07T02:38:50;13.40;;;6.28;;
47778;SDS011;33538;48.432;11.350;2023-12-07T02:41:20;17.23;;;7.45;;
47778;SDS011;33538;48.432;11.350;2023-12-07T02:43:48;15.77;;;7.45;;
47778;SDS011;33538;48.432;11.350;2023-12-07T02:46:15;14.05;;;7.05;;
47778;SDS011;33538;48.432;11.350;2023-12-07T02:48:42;17.92;;;6.90;;
47778;SDS011;33538;48.432;11.350;2023-12-07T02:51:09;15.07;;;7.05;;
47778;SDS011;33538;48.432;11.350;2023-12-07T02:53:36;15.15;;;7.10;;
47778;SDS011;33538;48.432;11.350;2023-12-07T02:56:03;14.93;;;7.70;;
47778;SDS011;33538;48.432;11.350;2023-12-07T02:58:30;18.80;;;7.80;;
47778;SDS011;33538;48.432;11.350;2023-12-07T03:00:58;17.08;;;8.10;;
47778;SDS011;33538;48.432;11.350;2023-12-07T03:03:25;18.95;;;7.70;;
47778;SDS011;33538;48.432;11.350;2023-12-07T03:05:52;17.55;;;7.07;;
47778;SDS011;33538;48.432;11.350;2023-12-07T03:08:19;18.52;;;7.57;;
47778;SDS011;33538;48.432;11.350;2023-12-07T03:10:46;17.88;;;7.47;;
47778;SDS011;33538;48.432;11.350;2023-12-07T03:13:13;16.65;;;7.47;;
47778;SDS011;33538;48.432;11.350;2023-12-07T03:15:40;16.48;;;7.60;;
47778;SDS011;33538;48.432;11.350;2023-12-07T03:18:08;16.42;;;7.30;;
47778;SDS011;33538;48.432;11.350;2023-12-07T03:20:35;17.73;;;7.22;;
47778;SDS011;33538;48.432;11.350;2023-12-07T03:23:02;14.27;;;6.97;;
47778;SDS011;33538;48.432;11.350;2023-12-07T03:25:29;17.17;;;6.97;;
47778;SDS011;33538;48.432;11.350;2023-12-07T03:27:56;13.52;;;7.10;;
47778;SDS011;33538;48.432;11.350;2023-12-07T03:30:23;17.40;;;7.78;;
47778;SDS011;33538;48.432;11.350;2023-12-07T03:32:49;22.02;;;8.00;;
47778;SDS011;33538;48.432;11.350;2023-12-07T03:35:18;17.20;;;7.63;;
47778;SDS011;33538;48.432;11.350;2023-12-07T03:37:44;17.13;;;7.35;;
47778;SDS011;33538;48.432;11.350;2023-12-07T03:40:11;18.42;;;7.63;;
47778;SDS011;33538;48.432;11.350;2023-12-07T03:42:38;15.48;;;6.68;;
47778;SDS011;33538;48.432;11.350;2023-12-07T03:45:21;15.13;;;6.90;;
47778;SDS011;33538;48.432;11.350;2023-12-07T03:47:48;15.30;;;6.95;;
47778;SDS011;33538;48.432;11.350;2023-12-07T03:50:15;15.43;;;6.80;;
47778;SDS011;33538;48.432;11.350;2023-12-07T03:52:43;16.55;;;6.72;;
47778;SDS011;33538;48.432;11.350;2023-12-07T03:55:10;17.48;;;7.70;;
47778;SDS011;33538;48.432;11.350;2023-12-07T03:57:38;13.77;;;6.88;;
47778;SDS011;33538;48.432;11.350;2023-12-07T04:00:05;10.63;;;6.05;;
47778;SDS011;33538;48.432;11.350;2023-12-07T04:02:32;10.90;;;5.72;;
47778;SDS011;33538;48.432;11.350;2023-12-07T04:04:59;12.27;;;5.90;;
47778;SDS011;33538;48.432;11.350;2023-12-07T04:07:26;14.85;;;6.28;;
47778;SDS011;33538;48.432;11.350;2023-12-07T04:09:54;14.27;;;6.68;;
47778;SDS011;33538;48.432;11.350;2023-12-07T04:12:21;15.88;;;6.88;;
47778;SDS011;33538;48.432;11.350;2023-12-07T04:14:49;21.08;;;7.90;;
47778;SDS011;33538;48.432;11.350;2023-12-07T04:17:16;15.93;;;6.85;;
47778;SDS011;33538;48.432;11.350;2023-12-07T04:19:43;14.40;;;6.40;;
47778;SDS011;33538;48.432;11.350;2023-12-07T04:22:10;12.52;;;6.18;;
47778;SDS011;33538;48.432;11.350;2023-12-07T04:24:36;14.52;;;6.47;;
47778;SDS011;33538;48.432;11.350;2023-12-07T04:27:05;16.38;;;6.72;;
47778;SDS011;33538;48.432;11.350;2023-12-07T04:29:32;13.93;;;6.00;;
47778;SDS011;33538;48.432;11.350;2023-12-07T04:31:58;17.52;;;6.10;;
47778;SDS011;33538;48.432;11.350;2023-12-07T04:34:25;21.00;;;7.43;;
47778;SDS011;33538;48.432;11.350;2023-12-07T04:36:52;16.20;;;6.68;;
47778;SDS011;33538;48.432;11.350;2023-12-07T04:39:19;14.80;;;7.13;;
47778;SDS011;33538;48.432;11.350;2023-12-07T04:41:46;17.55;;;7.22;;
47778;SDS011;33538;48.432;11.350;2023-12-07T04:44:14;17.05;;;6.82;;
47778;SDS011;33538;48.432;11.350;2023-12-07T04:46:41;19.98;;;7.65;;
47778;SDS011;33538;48.432;11.350;2023-12-07T04:49:09;20.83;;;7.68;;
47778;SDS011;33538;48.432;11.350;2023-12-07T04:51:35;19.85;;;7.07;;
47778;SDS011;33538;48.432;11.350;2023-12-07T04:54:02;17.15;;;7.53;;
47778;SDS011;33538;48.432;11.350;2023-12-07T04:56:41;18.42;;;6.68;;
47778;SDS011;33538;48.432;11.350;2023-12-07T04:59:09;18.15;;;7.22;;
47778;SDS011;33538;48.432;11.350;2023-12-07T05:01:37;17.38;;;6.10;;
47778;SDS011;33538;48.432;11.350;2023-12-07T05:04:04;17.52;;;6.20;;
47778;SDS011;33538;48.432;11.350;2023-12-07T05:06:31;16.73;;;7.38;;
47778;SDS011;33538;48.432;11.350;2023-12-07T05:08:59;16.55;;;6.80;;
47778;SDS011;33538;48.432;11.350;2023-12-07T05:11:26;17.38;;;7.53;;
47778;SDS011;33538;48.432;11.350;2023-12-07T05:13:52;13.18;;;6.40;;
47778;SDS011;33538;48.432;11.350;2023-12-07T05:16:19;18.48;;;7.57;;
47778;SDS011;33538;48.432;11.350;2023-12-07T05:18:47;15.13;;;6.93;;
47778;SDS011;33538;48.432;11.350;2023-12-07T05:21:15;16.38;;;6.72;;
47778;SDS011;33538;48.432;11.350;2023-12-07T05:23:45;17.90;;;7.43;;
47778;SDS011;33538;48.432;11.350;2023-12-07T05:26:14;14.90;;;6.75;;
47778;SDS011;33538;48.432;11.350;2023-12-07T05:28:42;14.73;;;6.53;;
47778;SDS011;33538;48.432;11.350;2023-12-07T05:31:17;15.00;;;6.65;;
47778;SDS011;33538;48.432;11.350;2023-12-07T05:33:50;15.00;;;7.68;;
47778;SDS011;33538;48.432;11.350;2023-12-07T05:38:46;17.15;;;7.60;;
47778;SDS011;33538;48.432;11.350;2023-12-07T05:41:15;13.40;;;6.00;;
47778;SDS011;33538;48.432;11.350;2023-12-07T05:43:44;16.38;;;7.05;;
47778;SDS011;33538;48.432;11.350;2023-12-07T05:46:11;13.48;;;5.90;;
47778;SDS011;33538;48.432;11.350;2023-12-07T05:48:39;15.35;;;7.05;;
47778;SDS011;33538;48.432;11.350;2023-12-07T05:51:12;13.13;;;5.95;;
47778;SDS011;33538;48.432;11.350;2023-12-07T05:53:50;16.33;;;6.85;;
47778;SDS011;33538;48.432;11.350;2023-12-07T05:56:20;18.77;;;7.95;;
47778;SDS011;33538;48.432;11.350;2023-12-07T05:58:50;17.63;;;7.10;;
47778;SDS011;33538;48.432;11.350;2023-12-07T06:01:20;13.48;;;5.75;;
47778;SDS011;33538;48.432;11.350;2023-12-07T06:03:51;17.30;;;7.60;;
47778;SDS011;33538;48.432;11.350;2023-12-07T06:06:21;12.85;;;6.30;;
47778;SDS011;33538;48.432;11.350;2023-12-07T06:08:49;17.83;;;7.90;;
47778;SDS011;33538;48.432;11.350;2023-12-07T06:11:17;14.23;;;6.53;;
47778;SDS011;33538;48.432;11.350;2023-12-07T06:13:45;14.63;;;6.60;;
47778;SDS011;33538;48.432;11.350;2023-12-07T06:16:14;12.38;;;5.25;;
47778;SDS011;33538;48.432;11.350;2023-12-07T06:18:41;11.77;;;6.13;;
47778;SDS011;33538;48.432;11.350;2023-12-07T06:21:13;17.58;;;6.60;;
47778;SDS011;33538;48.432;11.350;2023-12-07T06:23:42;16.42;;;6.80;;
47778;SDS011;33538;48.432;11.350;2023-12-07T06:26:09;14.23;;;6.50;;
47778;SDS011;33538;48.432;11.350;2023-12-07T06:28:36;17.70;;;7.15;;
47778;SDS011;33538;48.432;11.350;2023-12-07T06:31:05;13.75;;;6.78;;
47778;SDS011;33538;48.432;11.350;2023-12-07T06:33:36;15.90;;;6.00;;
47778;SDS011;33538;48.432;11.350;2023-12-07T06:36:04;15.35;;;6.20;;
47778;SDS011;33538;48.432;11.350;2023-12-07T06:38:32;21.13;;;8.10;;
47778;SDS011;33538;48.432;11.350;2023-12-07T06:41:01;17.90;;;7.57;;
47778;SDS011;33538;48.432;11.350;2023-12-07T06:43:28;17.88;;;6.20;;
47778;SDS011;33538;48.432;11.350;2023-12-07T06:45:57;14.57;;;6.63;;
47778;SDS011;33538;48.432;11.350;2023-12-07T06:48:24;12.90;;;5.80;;
47778;SDS011;33538;48.432;11.350;2023-12-07T06:50:52;15.50;;;6.07;;
47778;SDS011;33538;48.432;11.350;2023-12-07T06:53:19;13.88;;;6.35;;
47778;SDS011;33538;48.432;11.350;2023-12-07T06:55:46;13.35;;;6.15;;
47778;SDS011;33538;48.432;11.350;2023-12-07T06:58:15;14.80;;;6.07;;
47778;SDS011;33538;48.432;11.350;2023-12-07T07:00:42;14.02;;;6.13;;
47778;SDS011;33538;48.432;11.350;2023-12-07T07:03:10;11.65;;;6.07;;
47778;SDS011;33538;48.432;11.350;2023-12-07T07:05:37;15.02;;;5.80;;
47778;SDS011;33538;48.432;11.350;2023-12-07T07:08:04;15.80;;;5.85;;
47778;SDS011;33538;48.432;11.350;2023-12-07T07:10:31;16.70;;;6.82;;
47778;SDS011;33538;48.432;11.350;2023-12-07T07:13:00;12.05;;;6.10;;
47778;SDS011;33538;48.432;11.350;2023-12-07T07:15:28;13.50;;;6.18;;
47778;SDS011;33538;48.432;11.350;2023-12-07T07:17:55;21.77;;;8.77;;
47778;SDS011;33538;48.432;11.350;2023-12-07T07:20:23;15.27;;;6.93;;
47778;SDS011;33538;48.432;11.350;2023-12-07T07:22:50;23.67;;;9.45;;
47778;SDS011;33538;48.432;11.350;2023-12-07T07:25:17;21.40;;;8.98;;
47778;SDS011;33538;48.432;11.350;2023-12-07T07:27:44;19.92;;;7.88;;
47778;SDS011;33538;48.432;11.350;2023-12-07T07:30:12;13.85;;;5.30;;
47778;SDS011;33538;48.432;11.350;2023-12-07T07:32:40;8.25;;;4.53;;
47778;SDS011;33538;48.432;11.350;2023-12-07T07:35:07;10.48;;;5.40;;
47778;SDS011;33538;48.432;11.350;2023-12-07T07:37:34;13.25;;;5.47;;
47778;SDS011;33538;48.432;11.350;2023-12-07T07:40:01;11.98;;;5.25;;
47778;SDS011;33538;48.432;11.350;2023-12-07T07:42:28;14.13;;;5.43;;
47778;SDS011;33538;48.432;11.350;2023-12-07T07:44:55;15.05;;;6.45;;
47778;SDS011;33538;48.432;11.350;2023-12-07T07:47:22;20.23;;;7.10;;
47778;SDS011;33538;48.432;11.350;2023-12-07T07:49:50;17.10;;;7.72;;
47778;SDS011;33538;48.432;11.350;2023-12-07T07:52:17;20.67;;;7.35;;
47778;SDS011;33538;48.432;11.350;2023-12-07T07:54:44;13.30;;;6.40;;
47778;SDS011;33538;48.432;11.350;2023-12-07T07:57:10;16.58;;;7.20;;
47778;SDS011;33538;48.432;11.350;2023-12-07T07:59:37;19.70;;;6.88;;
47778;SDS011;33538;48.432;11.350;2023-12-07T08:02:04;17.77;;;6.05;;
47778;SDS011;33538;48.432;11.350;2023-12-07T08:04:31;14.48;;;4.88;;
47778;SDS011;33538;48.432;11.350;2023-12-07T08:06:59;14.25;;;6.60;;
47778;SDS011;33538;48.432;11.350;2023-12-07T08:09:26;13.80;;;6.28;;
47778;SDS011;33538;48.432;11.350;2023-12-07T08:11:53;21.20;;;7.15;;
47778;SDS011;33538;48.432;11.350;2023-12-07T08:14:20;13.80;;;6.57;;
47778;SDS011;33538;48.432;11.350;2023-12-07T08:16:46;14.05;;;6.20;;
47778;SDS011;33538;48.432;11.350;2023-12-07T08:19:13;12.15;;;5.72;;
47778;SDS011;33538;48.432;11.350;2023-12-07T08:21:40;16.25;;;6.82;;
47778;SDS011;33538;48.432;11.350;2023-12-07T08:24:08;14.60;;;5.97;;
47778;SDS011;33538;48.432;11.350;2023-12-07T08:26:35;15.63;;;6.78;;
47778;SDS011;33538;48.432;11.350;2023-12-07T08:29:02;14.23;;;6.47;;
47778;SDS011;33538;48.432;11.350;2023-12-07T08:31:31;12.02;;;6.13;;
47778;SDS011;33538;48.432;11.350;2023-12-07T08:33:58;15.68;;;6.65;;
47778;SDS011;33538;48.432;11.350;2023-12-07T08:36:26;19.92;;;7.13;;
47778;SDS011;33538;48.432;11.350;2023-12-07T08:38:53;16.17;;;6.70;;
47778;SDS011;33538;48.432;11.350;2023-12-07T08:41:21;15.00;;;7.22;;
47778;SDS011;33538;48.432;11.350;2023-12-07T08:43:48;12.23;;;6.57;;
47778;SDS011;33538;48.432;11.350;2023-12-07T08:46:15;20.02;;;6.88;;
47778;SDS011;33538;48.432;11.350;2023-12-07T08:48:42;16.63;;;7.13;;
47778;SDS011;33538;48.432;11.350;2023-12-07T08:51:09;16.73;;;7.53;;
47778;SDS011;33538;48.432;11.350;2023-12-07T08:53:36;15.50;;;7.18;;
47778;SDS011;33538;48.432;11.350;2023-12-07T08:56:04;16.92;;;7.57;;
47778;SDS011;33538;48.432;11.350;2023-12-07T08:58:32;15.32;;;6.75;;
47778;SDS011;33538;48.432;11.350;2023-12-07T09:00:59;12.13;;;5.95;;
47778;SDS011;33538;48.432;11.350;2023-12-07T09:03:26;12.40;;;6.50;;
47778;SDS011;33538;48.432;11.350;2023-12-07T09:05:53;16.98;;;7.13;;
47778;SDS011;33538;48.432;11.350;2023-12-07T09:08:20;14.82;;;6.00;;
47778;SDS011;33538;48.432;11.350;2023-12-07T09:10:47;12.82;;;7.03;;
47778;SDS011;33538;48.432;11.350;2023-12-07T09:13:14;14.98;;;6.50;;
47778;SDS011;33538;48.432;11.350;2023-12-07T09:15:43;16.05;;;6.43;;
47778;SDS011;33538;48.432;11.350;2023-12-07T09:18:10;15.95;;;7.20;;
47778;SDS011;33538;48.432;11.350;2023-12-07T09:20:37;16.60;;;7.30;;
47778;SDS011;33538;48.432;11.350;2023-12-07T09:23:05;11.93;;;6.05;;
47778;SDS011;33538;48.432;11.350;2023-12-07T09:25:32;12.38;;;5.68;;
47778;SDS011;33538;48.432;11.350;2023-12-07T09:27:58;10.75;;;5.97;;
47778;SDS011;33538;48.432;11.350;2023-12-07T09:30:25;15.68;;;6.32;;
47778;SDS011;33538;48.432;11.350;2023-12-07T09:32:53;14.90;;;6.20;;
47778;SDS011;33538;48.432;11.350;2023-12-07T09:35:20;13.30;;;6.60;;
47778;SDS011;33538;48.432;11.350;2023-12-07T09:37:47;12.07;;;6.03;;
47778;SDS011;33538;48.432;11.350;2023-12-07T09:40:15;16.27;;;6.57;;
47778;SDS011;33538;48.432;11.350;2023-12-07T09:42:42;19.30;;;6.70;;
47778;SDS011;33538;48.432;11.350;2023-12-07T09:45:09;14.80;;;6.95;;
47778;SDS011;33538;48.432;11.350;2023-12-07T09:47:36;16.23;;;7.18;;
47778;SDS011;33538;48.432;11.350;2023-12-07T09:50:06;18.63;;;6.70;;
47778;SDS011;33538;48.432;11.350;2023-12-07T09:52:34;12.60;;;6.57;;
47778;SDS011;33538;48.432;11.350;2023-12-07T09:55:02;15.43;;;6.05;;
47778;SDS011;33538;48.432;11.350;2023-12-07T09:57:30;16.15;;;6.53;;
47778;SDS011;33538;48.432;11.350;2023-12-07T09:59:57;14.82;;;6.65;;
47778;SDS011;33538;48.432;11.350;2023-12-07T10:02:24;10.45;;;5.45;;
47778;SDS011;33538;48.432;11.350;2023-12-07T10:05:02;14.65;;;6.68;;
47778;SDS011;33538;48.432;11.350;2023-12-07T10:07:33;14.57;;;6.10;;
47778;SDS011;33538;48.432;11.350;2023-12-07T10:10:01;17.40;;;6.30;;
47778;SDS011;33538;48.432;11.350;2023-12-07T10:12:28;21.95;;;6.32;;
47778;SDS011;33538;48.432;11.350;2023-12-07T10:14:55;17.10;;;7.22;;
47778;SDS011;33538;48.432;11.350;2023-12-07T10:17:22;14.65;;;6.53;;
47778;SDS011;33538;48.432;11.350;2023-12-07T10:22:35;13.00;;;6.78;;
47778;SDS011;33538;48.432;11.350;2023-12-07T10:25:05;13.38;;;6.57;;
47778;SDS011;33538;48.432;11.350;2023-12-07T10:27:32;17.20;;;6.65;;
47778;SDS011;33538;48.432;11.350;2023-12-07T10:29:59;14.10;;;6.78;;
47778;SDS011;33538;48.432;11.350;2023-12-07T10:32:26;15.60;;;6.60;;
47778;SDS011;33538;48.432;11.350;2023-12-07T10:34:53;14.52;;;6.70;;
47778;SDS011;33538;48.432;11.350;2023-12-07T10:37:20;17.13;;;7.50;;
47778;SDS011;33538;48.432;11.350;2023-12-07T10:39:48;10.82;;;5.63;;
47778;SDS011;33538;48.432;11.350;2023-12-07T10:42:15;11.63;;;5.60;;
47778;SDS011;33538;48.432;11.350;2023-12-07T10:44:44;13.00;;;6.45;;
47778;SDS011;33538;48.432;11.350;2023-12-07T10:47:14;16.88;;;7.43;;
47778;SDS011;33538;48.432;11.350;2023-12-07T10:49:43;15.68;;;6.18;;
47778;SDS011;33538;48.432;11.350;2023-12-07T10:52:13;16.40;;;6.68;;
47778;SDS011;33538;48.432;11.350;2023-12-07T10:54:50;13.70;;;6.43;;
47778;SDS011;33538;48.432;11.350;2023-12-07T10:57:20;16.75;;;6.25;;
47778;SDS011;33538;48.432;11.350;2023-12-07T10:59:48;14.25;;;5.97;;
47778;SDS011;33538;48.432;11.350;2023-12-07T11:02:16;14.63;;;5.72;;
47778;SDS011;33538;48.432;11.350;2023-12-07T11:04:47;13.85;;;5.88;;
47778;SDS011;33538;48.432;11.350;2023-12-07T11:07:16;13.73;;;5.57;;
47778;SDS011;33538;48.432;11.350;2023-12-07T11:09:50;9.18;;;5.18;;
47778;SDS011;33538;48.432;11.350;2023-12-07T11:12:23;11.50;;;5.07;;
47778;SDS011;33538;48.432;11.350;2023-12-07T11:14:59;12.73;;;5.60;;
47778;SDS011;33538;48.432;11.350;2023-12-07T11:17:26;11.55;;;5.35;;
47778;SDS011;33538;48.432;11.350;2023-12-07T11:19:54;12.98;;;5.55;;
47778;SDS011;33538;48.432;11.350;2023-12-07T11:22:21;12.80;;;5.40;;
47778;SDS011;33538;48.432;11.350;2023-12-07T11:24:56;9.57;;;5.47;;
47778;SDS011;33538;48.432;11.350;2023-12-07T11:27:24;14.93;;;6.57;;
47778;SDS011;33538;48.432;11.350;2023-12-07T11:29:51;10.13;;;5.82;;
47778;SDS011;33538;48.432;11.350;2023-12-07T11:32:18;9.95;;;5.25;;
47778;SDS011;33538;48.432;11.350;2023-12-07T11:34:54;14.60;;;6.18;;
47778;SDS011;33538;48.432;11.350;2023-12-07T11:37:25;16.25;;;6.20;;
47778;SDS011;33538;48.432;11.350;2023-12-07T11:40:36;12.30;;;5.85;;
47778;SDS011;33538;48.432;11.350;2023-12-07T11:43:03;11.50;;;5.20;;
47778;SDS011;33538;48.432;11.350;2023-12-07T11:45:35;10.20;;;4.45;;
47778;SDS011;33538;48.432;11.350;2023-12-07T11:48:09;8.25;;;4.03;;
47778;SDS011;33538;48.432;11.350;2023-12-07T11:51:00;9.75;;;4.40;;
47778;SDS011;33538;48.432;11.350;2023-12-07T11:53:30;10.55;;;5.07;;
47778;SDS011;33538;48.432;11.350;2023-12-07T11:55:57;8.15;;;4.20;;
47778;SDS011;33538;48.432;11.350;2023-12-07T11:58:25;12.52;;;4.40;;
47778;SDS011;33538;48.432;11.350;2023-12-07T12:00:52;10.43;;;4.32;;
47778;SDS011;33538;48.432;11.350;2023-12-07T12:03:19;6.57;;;4.15;;
47778;SDS011;33538;48.432;11.350;2023-12-07T12:05:46;6.53;;;3.95;;
47778;SDS011;33538;48.432;11.350;2023-12-07T12:08:15;9.80;;;4.63;;
47778;SDS011;33538;48.432;11.350;2023-12-07T12:10:43;14.10;;;5.72;;
47778;SDS011;33538;48.432;11.350;2023-12-07T12:13:11;12.50;;;5.57;;
47778;SDS011;33538;48.432;11.350;2023-12-07T12:15:38;8.95;;;4.20;;
47778;SDS011;33538;48.432;11.350;2023-12-07T12:18:05;8.35;;;4.55;;
47778;SDS011;33538;48.432;11.350;2023-12-07T12:20:32;11.27;;;4.32;;
47778;SDS011;33538;48.432;11.350;2023-12-07T12:22:59;10.73;;;4.57;;
47778;SDS011;33538;48.432;11.350;2023-12-07T12:25:26;8.40;;;3.80;;
47778;SDS011;33538;48.432;11.350;2023-12-07T12:27:56;10.48;;;4.72;;
47778;SDS011;33538;48.432;11.350;2023-12-07T12:30:26;9.13;;;4.97;;
47778;SDS011;33538;48.432;11.350;2023-12-07T12:32:54;8.35;;;4.68;;
47778;SDS011;33538;48.432;11.350;2023-12-07T12:35:22;9.20;;;4.28;;
47778;SDS011;33538;48.432;11.350;2023-12-07T12:37:49;10.43;;;4.75;;
47778;SDS011;33538;48.432;11.350;2023-12-07T12:40:17;10.73;;;4.18;;
47778;SDS011;33538;48.432;11.350;2023-12-07T12:42:45;8.90;;;4.38;;
47778;SDS011;33538;48.432;11.350;2023-12-07T12:45:13;7.93;;;3.80;;
47778;SDS011;33538;48.432;11.350;2023-12-07T12:47:41;13.02;;;5.10;;
47778;SDS011;33538;48.432;11.350;2023-12-07T12:50:09;10.18;;;4.95;;
47778;SDS011;33538;48.432;11.350;2023-12-07T12:52:36;14.32;;;5.40;;
47778;SDS011;33538;48.432;11.350;2023-12-07T12:55:06;12.25;;;4.88;;
47778;SDS011;33538;48.432;11.350;2023-12-07T12:57:34;10.38;;;5.13;;
47778;SDS011;33538;48.432;11.350;2023-12-07T13:00:01;12.07;;;5.75;;
47778;SDS011;33538;48.432;11.350;2023-12-07T13:02:29;13.50;;;5.70;;
47778;SDS011;33538;48.432;11.350;2023-12-07T13:04:56;9.80;;;5.45;;
47778;SDS011;33538;48.432;11.350;2023-12-07T13:07:25;11.70;;;4.85;;
47778;SDS011;33538;48.432;11.350;2023-12-07T13:09:53;9.90;;;4.60;;
47778;SDS011;33538;48.432;11.350;2023-12-07T13:12:19;8.88;;;4.43;;
47778;SDS011;33538;48.432;11.350;2023-12-07T13:14:46;7.72;;;3.80;;
47778;SDS011;33538;48.432;11.350;2023-12-07T13:17:15;8.10;;;4.10;;
47778;SDS011;33538;48.432;11.350;2023-12-07T13:19:43;10.13;;;5.03;;
47778;SDS011;33538;48.432;11.350;2023-12-07T13:22:11;10.13;;;4.72;;
47778;SDS011;33538;48.432;11.350;2023-12-07T13:24:37;8.07;;;4.22;;
47778;SDS011;33538;48.432;11.350;2023-12-07T13:27:04;9.00;;;4.65;;
47778;SDS011;33538;48.432;11.350;2023-12-07T13:29:31;8.27;;;4.45;;
47778;SDS011;33538;48.432;11.350;2023-12-07T13:32:02;10.88;;;4.75;;
47778;SDS011;33538;48.432;11.350;2023-12-07T13:34:29;12.57;;;5.25;;
47778;SDS011;33538;48.432;11.350;2023-12-07T13:36:57;9.57;;;4.60;;
47778;SDS011;33538;48.432;11.350;2023-12-07T13:39:24;8.55;;;4.50;;
47778;SDS011;33538;48.432;11.350;2023-12-07T13:41:56;7.90;;;4.03;;
47778;SDS011;33538;48.432;11.350;2023-12-07T13:44:24;9.52;;;5.00;;
47778;SDS011;33538;48.432;11.350;2023-12-07T13:46:54;7.43;;;3.80;;
47778;SDS011;33538;48.432;11.350;2023-12-07T13:49:21;9.55;;;4.22;;
47778;SDS011;33538;48.432;11.350;2023-12-07T13:52:00;10.70;;;4.57;;
47778;SDS011;33538;48.432;11.350;2023-12-07T13:57:18;7.43;;;3.80;;
47778;SDS011;33538;48.432;11.350;2023-12-07T13:59:45;7.80;;;3.70;;
47778;SDS011;33538;48.432;11.350;2023-12-07T14:02:12;12.45;;;4.22;;
47778;SDS011;33538;48.432;11.350;2023-12-07T14:04:39;7.93;;;4.05;;
47778;SDS011;33538;48.432;11.350;2023-12-07T14:07:08;9.02;;;3.85;;
47778;SDS011;33538;48.432;11.350;2023-12-07T14:09:39;8.15;;;3.80;;
47778;SDS011;33538;48.432;11.350;2023-12-07T14:12:22;8.63;;;4.57;;
47778;SDS011;33538;48.432;11.350;2023-12-07T14:14:49;8.23;;;4.32;;
47778;SDS011;33538;48.432;11.350;2023-12-07T14:17:16;8.38;;;4.05;;
47778;SDS011;33538;48.432;11.350;2023-12-07T14:19:45;10.40;;;4.30;;
47778;SDS011;33538;48.432;11.350;2023-12-07T14:22:13;10.65;;;4.85;;
47778;SDS011;33538;48.432;11.350;2023-12-07T14:24:40;8.52;;;4.53;;
47778;SDS011;33538;48.432;11.350;2023-12-07T14:27:07;11.07;;;4.82;;
47778;SDS011;33538;48.432;11.350;2023-12-07T14:29:34;9.73;;;4.63;;
47778;SDS011;33538;48.432;11.350;2023-12-07T14:32:01;9.98;;;4.45;;
47778;SDS011;33538;48.432;11.350;2023-12-07T14:34:30;7.95;;;4.15;;
47778;SDS011;33538;48.432;11.350;2023-12-07T14:37:01;10.20;;;5.13;;